createdAt,value
2023-05-06T00:00:40.938Z,12.57
2023-05-06T00:03:09.922Z,12.80
2023-05-06T00:05:38.000Z,20.00
2023-05-06T00:08:07.692Z,15.43
2023-05-06T00:10:35.981Z,16.33
2023-05-06T00:13:04.036Z,16.30
2023-05-06T00:15:32.292Z,15.23
2023-05-06T00:18:01.194Z,18.20
2023-05-06T00:20:29.748Z,16.40
2023-05-06T00:22:57.780Z,14.80
2023-05-06T00:25:27.344Z,14.90
2023-05-06T00:27:55.293Z,15.63
2023-05-06T00:30:23.645Z,21.10
2023-05-06T00:32:51.762Z,15.43
2023-05-06T00:35:19.889Z,13.97
2023-05-06T00:37:48.077Z,22.37
2023-05-06T00:40:16.065Z,21.43
2023-05-06T00:42:45.418Z,15.87
2023-05-06T00:45:13.371Z,17.83
2023-05-06T00:47:43.113Z,14.87
2023-05-06T00:50:11.647Z,14.83
2023-05-06T00:52:39.694Z,21.80
2023-05-06T00:55:08.596Z,16.97
2023-05-06T00:57:36.840Z,15.83
2023-05-06T01:00:07.848Z,16.93
2023-05-06T01:02:46.448Z,19.13
2023-05-06T01:05:16.155Z,18.97
2023-05-06T01:07:53.430Z,16.17
2023-05-06T01:10:28.762Z,14.53
2023-05-06T01:13:05.612Z,24.30
2023-05-06T01:15:39.294Z,16.03
2023-05-06T01:18:11.711Z,21.10
2023-05-06T01:20:41.961Z,15.20
2023-05-06T01:23:13.080Z,17.80
2023-05-06T01:25:41.942Z,17.23
2023-05-06T01:28:11.684Z,16.20
2023-05-06T01:30:45.936Z,15.43
2023-05-06T01:33:21.421Z,14.20
2023-05-06T01:35:57.390Z,18.40
2023-05-06T01:38:33.071Z,16.40
2023-05-06T01:41:02.549Z,17.70
2023-05-06T01:43:35.834Z,14.70
2023-05-06T01:46:04.576Z,20.40
2023-05-06T01:48:34.786Z,17.53
2023-05-06T01:51:03.715Z,17.83
2023-05-06T01:53:33.121Z,15.33
2023-05-06T01:56:01.162Z,17.03
2023-05-06T01:58:29.176Z,14.60
2023-05-06T02:00:57.158Z,18.83
2023-05-06T02:03:25.698Z,14.63
2023-05-06T02:05:53.714Z,19.77
2023-05-06T02:08:22.072Z,18.00
2023-05-06T02:10:51.457Z,16.60
2023-05-06T02:13:20.030Z,24.47
2023-05-06T02:15:48.054Z,18.33
2023-05-06T02:18:15.990Z,16.67
2023-05-06T02:20:43.913Z,14.20
2023-05-06T02:23:11.977Z,12.80
2023-05-06T02:25:39.937Z,12.70
2023-05-06T02:28:09.550Z,22.37
2023-05-06T02:30:37.679Z,18.10
2023-05-06T02:33:05.789Z,17.87
2023-05-06T02:35:33.858Z,16.20
2023-05-06T02:38:02.380Z,15.97
2023-05-06T02:40:30.324Z,17.17
2023-05-06T02:42:58.339Z,16.90
2023-05-06T02:45:27.848Z,19.83
2023-05-06T02:47:56.007Z,17.93
2023-05-06T02:50:24.048Z,25.80
2023-05-06T02:52:52.029Z,20.40
2023-05-06T02:55:20.556Z,15.73
2023-05-06T02:57:48.622Z,25.07
2023-05-06T03:00:17.237Z,21.40
2023-05-06T03:02:46.568Z,16.50
2023-05-06T03:05:15.108Z,16.40
2023-05-06T03:07:43.689Z,17.50
2023-05-06T03:10:12.080Z,16.80
2023-05-06T03:12:40.150Z,28.03
2023-05-06T03:15:09.275Z,20.23
2023-05-06T03:17:37.675Z,15.30
2023-05-06T03:20:09.724Z,20.83
2023-05-06T03:22:37.730Z,17.07
2023-05-06T03:25:06.535Z,18.10
2023-05-06T03:27:34.521Z,29.70
2023-05-06T03:30:02.554Z,18.20
2023-05-06T03:32:30.790Z,20.33
2023-05-06T03:34:58.792Z,20.93
2023-05-06T03:37:29.146Z,15.93
2023-05-06T03:39:57.090Z,17.93
2023-05-06T03:42:25.116Z,18.83
2023-05-06T03:44:53.085Z,23.60
2023-05-06T03:47:21.329Z,14.93
2023-05-06T03:49:49.979Z,12.00
2023-05-06T03:52:17.972Z,15.67
2023-05-06T03:54:47.300Z,21.70
2023-05-06T03:57:15.269Z,16.50
2023-05-06T03:59:43.327Z,12.90
2023-05-06T04:02:11.316Z,10.60
2023-05-06T04:04:39.430Z,14.03
2023-05-06T04:07:07.388Z,11.27
2023-05-06T04:09:35.345Z,11.63
2023-05-06T04:12:05.332Z,7.20
2023-05-06T04:14:33.384Z,6.00
2023-05-06T04:17:01.304Z,7.30
2023-05-06T04:19:29.237Z,7.80
2023-05-06T04:21:58.399Z,7.10
2023-05-06T04:24:28.263Z,4.63
2023-05-06T04:26:57.121Z,6.20
2023-05-06T04:29:27.036Z,6.23
2023-05-06T04:31:55.707Z,7.17
2023-05-06T04:34:24.957Z,5.80
2023-05-06T04:36:54.186Z,8.53
2023-05-06T04:39:22.744Z,6.63
2023-05-06T04:41:50.822Z,4.80
2023-05-06T04:44:19.404Z,6.57
2023-05-06T04:46:48.844Z,5.90
2023-05-06T04:49:16.833Z,5.43
2023-05-06T04:51:44.837Z,8.00
2023-05-06T04:54:12.886Z,4.53
2023-05-06T04:56:40.955Z,5.50
2023-05-06T04:59:08.892Z,4.20
2023-05-06T05:01:37.159Z,4.50
2023-05-06T05:04:06.582Z,5.00
2023-05-06T05:06:34.518Z,6.63
2023-05-06T05:09:02.584Z,5.10
2023-05-06T05:11:30.582Z,5.47
2023-05-06T05:14:00.891Z,4.67
2023-05-06T05:16:30.238Z,6.17
2023-05-06T05:18:58.287Z,7.37
2023-05-06T05:21:28.147Z,5.13
2023-05-06T05:23:56.094Z,8.23
2023-05-06T05:26:24.522Z,8.27
2023-05-06T05:28:52.479Z,8.73
2023-05-06T05:31:20.469Z,11.77
2023-05-06T05:33:48.597Z,13.33
2023-05-06T05:36:16.689Z,10.70
2023-05-06T05:38:47.726Z,11.40
2023-05-06T05:41:17.292Z,13.73
2023-05-06T05:43:45.635Z,14.83
2023-05-06T05:46:14.121Z,13.80
2023-05-06T05:48:42.226Z,16.80
2023-05-06T05:51:11.522Z,12.47
2023-05-06T05:53:39.468Z,15.60
2023-05-06T05:56:09.075Z,16.40
2023-05-06T05:58:37.028Z,24.30
2023-05-06T06:01:05.298Z,23.30
2023-05-06T06:03:33.339Z,18.43
2023-05-06T06:06:01.424Z,16.40
2023-05-06T06:08:29.788Z,18.23
2023-05-06T06:10:57.734Z,16.60
2023-05-06T06:13:29.248Z,20.73
2023-05-06T06:15:57.572Z,17.17
2023-05-06T06:18:25.812Z,17.63
2023-05-06T06:20:55.022Z,16.63
2023-05-06T06:23:24.741Z,16.30
2023-05-06T06:25:53.098Z,20.83
2023-05-06T06:28:21.092Z,19.00
2023-05-06T06:30:50.768Z,17.07
2023-05-06T06:33:18.710Z,16.27
2023-05-06T06:35:46.632Z,17.00
2023-05-06T06:38:14.605Z,15.50
2023-05-06T06:40:42.698Z,16.60
2023-05-06T06:43:11.911Z,17.40
2023-05-06T06:45:39.833Z,14.53
2023-05-06T06:48:09.342Z,17.70
2023-05-06T06:50:37.547Z,14.07
2023-05-06T06:53:06.520Z,12.10
2023-05-06T06:55:34.846Z,12.40
2023-05-06T06:58:03.251Z,10.53
2023-05-06T07:00:39.157Z,6.60
2023-05-06T07:03:07.131Z,8.27
2023-05-06T07:05:35.090Z,5.63
2023-05-06T07:08:03.442Z,5.80
2023-05-06T07:10:31.340Z,4.70
2023-05-06T07:12:59.506Z,5.20
2023-05-06T07:15:27.486Z,8.30
2023-05-06T07:17:56.805Z,5.60
2023-05-06T07:20:24.851Z,4.57
2023-05-06T07:22:52.791Z,4.90
2023-05-06T07:25:20.838Z,5.40
2023-05-06T07:27:48.784Z,6.30
2023-05-06T07:30:21.023Z,7.30
2023-05-06T07:32:51.069Z,7.57
2023-05-06T07:35:20.655Z,4.07
2023-05-06T07:37:48.971Z,6.07
2023-05-06T07:40:16.986Z,3.87
2023-05-06T07:42:44.884Z,10.37
2023-05-06T07:45:13.156Z,3.50
2023-05-06T07:47:41.339Z,5.53
2023-05-06T07:50:10.560Z,14.33
2023-05-06T07:52:40.217Z,9.13
2023-05-06T07:55:10.084Z,6.27
2023-05-06T07:57:38.239Z,7.33
2023-05-06T08:00:09.354Z,6.67
2023-05-06T08:02:38.383Z,4.50
2023-05-06T08:05:08.941Z,4.43
2023-05-06T08:07:37.097Z,4.70
2023-05-06T08:10:07.817Z,5.20
2023-05-06T08:12:37.401Z,4.57
2023-05-06T08:15:05.891Z,6.97
2023-05-06T08:17:33.904Z,5.33
2023-05-06T08:20:01.823Z,4.43
2023-05-06T08:22:29.817Z,4.78
2023-05-06T08:24:58.131Z,7.83
2023-05-06T08:27:27.413Z,4.70
2023-05-06T08:29:55.337Z,4.97
2023-05-06T08:32:23.403Z,7.37
2023-05-06T08:34:51.342Z,4.50
2023-05-06T08:37:19.413Z,4.13
2023-05-06T08:39:51.897Z,4.05
2023-05-06T08:42:19.912Z,6.57
2023-05-06T08:44:49.864Z,4.60
2023-05-06T08:47:17.840Z,4.80
2023-05-06T08:49:45.859Z,3.97
2023-05-06T08:52:13.812Z,6.80
2023-05-06T08:54:42.522Z,4.03
2023-05-06T08:57:13.282Z,4.20
2023-05-06T08:59:42.437Z,9.67
2023-05-06T09:02:12.295Z,6.00
2023-05-06T09:04:41.268Z,5.13
2023-05-06T09:07:09.595Z,5.33
2023-05-06T09:09:37.932Z,4.90
2023-05-06T09:12:11.099Z,4.17
2023-05-06T09:14:39.121Z,5.50
2023-05-06T09:17:08.162Z,4.97
2023-05-06T09:19:39.662Z,4.87
2023-05-06T09:22:07.677Z,7.43
2023-05-06T09:24:37.445Z,3.87
2023-05-06T09:27:05.587Z,8.90
2023-05-06T09:29:33.573Z,4.70
2023-05-06T09:32:06.783Z,4.03
2023-05-06T09:34:35.657Z,5.73
2023-05-06T09:37:05.080Z,7.40
2023-05-06T09:39:33.028Z,4.53
2023-05-06T09:42:02.240Z,4.63
2023-05-06T09:44:30.971Z,4.63
2023-05-06T09:46:59.291Z,13.80
2023-05-06T09:49:27.865Z,3.70
2023-05-06T09:51:57.625Z,5.53
2023-05-06T09:54:27.775Z,3.50
2023-05-06T09:56:58.829Z,3.87
2023-05-06T09:59:30.535Z,5.83
2023-05-06T10:02:00.042Z,4.40
2023-05-06T10:04:29.854Z,4.83
2023-05-06T10:07:01.237Z,3.50
2023-05-06T10:09:31.987Z,4.93
2023-05-06T10:12:02.791Z,3.33
2023-05-06T10:14:31.048Z,5.40
2023-05-06T10:17:00.171Z,4.80
2023-05-06T10:19:29.195Z,5.43
2023-05-06T10:22:05.760Z,3.77
2023-05-06T10:24:47.304Z,6.67
2023-05-06T10:27:23.588Z,9.40
2023-05-06T10:29:54.155Z,4.93
2023-05-06T10:32:22.759Z,5.37
2023-05-06T10:34:55.365Z,9.43
2023-05-06T10:37:25.919Z,9.07
2023-05-06T10:39:57.272Z,7.20
2023-05-06T10:42:28.906Z,8.40
2023-05-06T10:45:01.388Z,4.70
2023-05-06T10:47:29.372Z,5.50
2023-05-06T10:50:19.946Z,6.20
2023-05-06T10:52:49.016Z,5.53
2023-05-06T10:55:28.625Z,5.50
2023-05-06T10:57:57.860Z,6.07
2023-05-06T11:00:26.279Z,7.93
2023-05-06T11:02:58.596Z,4.83
2023-05-06T11:05:27.796Z,4.00
2023-05-06T11:08:09.663Z,7.33
2023-05-06T11:10:39.336Z,4.60
2023-05-06T11:13:22.166Z,4.83
2023-05-06T11:15:52.806Z,5.00
2023-05-06T11:18:43.464Z,5.83
2023-05-06T11:21:37.836Z,4.60
2023-05-06T11:24:13.196Z,6.53
2023-05-06T11:26:44.066Z,7.03
2023-05-06T11:29:12.118Z,5.70
2023-05-06T11:31:42.567Z,5.33
2023-05-06T11:34:13.226Z,4.80
2023-05-06T11:36:49.420Z,4.80
2023-05-06T11:39:17.540Z,6.00
2023-05-06T11:41:47.127Z,4.57
2023-05-06T11:44:25.983Z,5.00
2023-05-06T11:46:57.718Z,4.83
2023-05-06T11:49:26.693Z,8.23
2023-05-06T11:51:55.334Z,4.80
2023-05-06T11:54:23.636Z,9.07
2023-05-06T11:56:55.171Z,7.20
2023-05-06T11:59:33.331Z,5.10
2023-05-06T12:02:03.534Z,8.30
2023-05-06T12:04:39.583Z,5.27
2023-05-06T12:07:08.712Z,5.27
2023-05-06T12:09:37.233Z,4.70
2023-05-06T12:12:07.869Z,3.80
2023-05-06T12:14:37.036Z,4.20
2023-05-06T12:17:05.609Z,5.27
2023-05-06T12:19:34.101Z,3.20
2023-05-06T12:22:17.978Z,5.20
2023-05-06T12:24:46.393Z,4.10
2023-05-06T12:27:16.079Z,3.20
2023-05-06T12:29:53.700Z,7.60
2023-05-06T12:32:21.864Z,3.00
2023-05-06T12:34:49.816Z,4.60
2023-05-06T12:37:26.421Z,3.10
2023-05-06T12:39:57.839Z,3.63
2023-05-06T12:42:28.883Z,7.43
2023-05-06T12:44:57.042Z,5.03
2023-05-06T12:47:26.201Z,4.70
2023-05-06T12:49:55.705Z,7.03
2023-05-06T12:52:24.860Z,5.20
2023-05-06T12:54:53.240Z,5.43
2023-05-06T12:57:21.613Z,6.33
2023-05-06T12:59:51.228Z,6.47
2023-05-06T13:02:19.516Z,5.90
2023-05-06T13:04:47.594Z,4.80
2023-05-06T13:07:15.610Z,5.00
2023-05-06T13:09:44.430Z,4.87
2023-05-06T13:12:12.518Z,3.80
2023-05-06T13:14:40.581Z,4.53
2023-05-06T13:17:11.012Z,3.80
2023-05-06T13:19:39.414Z,3.43
2023-05-06T13:22:07.487Z,8.70
2023-05-06T13:24:35.516Z,5.10
2023-05-06T13:27:04.240Z,3.97
2023-05-06T13:29:32.141Z,2.97
2023-05-06T13:32:00.666Z,2.80
2023-05-06T13:34:30.281Z,16.40
2023-05-06T13:37:00.443Z,5.63
2023-05-06T13:39:28.424Z,4.37
2023-05-06T13:41:56.324Z,2.97
2023-05-06T13:44:24.621Z,4.20
2023-05-06T13:46:52.872Z,6.90
2023-05-06T13:49:21.052Z,6.20
2023-05-06T13:51:50.481Z,2.80
2023-05-06T13:54:18.408Z,14.90
2023-05-06T13:56:46.495Z,5.53
2023-05-06T13:59:14.435Z,5.37
2023-05-06T14:01:43.230Z,2.70
2023-05-06T14:04:11.206Z,4.63
2023-05-06T14:06:39.277Z,10.03
2023-05-06T14:09:08.879Z,3.90
2023-05-06T14:11:36.851Z,2.67
2023-05-06T14:14:04.833Z,5.63
2023-05-06T14:16:32.864Z,3.30
2023-05-06T14:19:01.011Z,8.40
2023-05-06T14:21:29.039Z,4.67
2023-05-06T14:23:57.417Z,6.03
2023-05-06T14:26:26.851Z,2.90
2023-05-06T14:28:54.801Z,5.03
2023-05-06T14:31:23.292Z,3.42
2023-05-06T14:33:51.406Z,4.27
2023-05-06T14:36:20.476Z,7.30
2023-05-06T14:38:48.446Z,2.93
2023-05-06T14:41:16.370Z,4.10
2023-05-06T14:43:46.455Z,5.47
2023-05-06T14:46:15.814Z,3.37
2023-05-06T14:48:45.292Z,2.43
2023-05-06T14:51:13.288Z,3.13
2023-05-06T14:53:41.241Z,4.63
2023-05-06T14:56:10.633Z,2.88
2023-05-06T14:58:39.203Z,4.00
2023-05-06T15:01:08.799Z,3.40
2023-05-06T15:03:37.192Z,5.30
2023-05-06T15:06:05.972Z,4.00
2023-05-06T15:08:34.130Z,11.43
2023-05-06T15:11:04.209Z,3.40
2023-05-06T15:13:32.467Z,9.50
2023-05-06T15:16:00.614Z,14.10
2023-05-06T15:18:29.905Z,3.20
2023-05-06T15:21:01.302Z,4.93
2023-05-06T15:23:29.288Z,3.40
2023-05-06T15:25:58.080Z,4.07
2023-05-06T15:28:26.057Z,5.83
2023-05-06T15:30:54.226Z,4.70
2023-05-06T15:33:22.264Z,4.93
2023-05-06T15:35:51.591Z,3.37
2023-05-06T15:38:19.556Z,3.37
2023-05-06T15:40:51.691Z,4.23
2023-05-06T15:43:23.716Z,3.10
2023-05-06T15:45:52.942Z,5.20
2023-05-06T15:48:21.024Z,3.90
2023-05-06T15:50:48.972Z,5.07
2023-05-06T15:53:19.545Z,5.30
2023-05-06T15:55:56.225Z,4.00
2023-05-06T15:58:25.934Z,3.37
2023-05-06T16:00:53.957Z,5.77
2023-05-06T16:03:21.997Z,8.33
2023-05-06T16:05:50.048Z,3.33
2023-05-06T16:08:19.507Z,5.20
2023-05-06T16:10:47.451Z,7.63
2023-05-06T16:13:15.556Z,7.30
2023-05-06T16:15:43.594Z,18.37
2023-05-06T16:18:11.899Z,3.90
2023-05-06T16:20:40.009Z,3.23
2023-05-06T16:23:08.309Z,3.70
2023-05-06T16:25:38.828Z,3.60
2023-05-06T16:28:07.017Z,3.10
2023-05-06T16:30:34.959Z,4.50
2023-05-06T16:33:03.931Z,3.03
2023-05-06T16:35:32.134Z,9.10
2023-05-06T16:38:00.121Z,3.77
2023-05-06T16:40:28.708Z,6.10
2023-05-06T16:42:58.246Z,7.50
2023-05-06T16:45:26.214Z,8.20
2023-05-06T16:47:54.211Z,3.17
2023-05-06T16:50:22.254Z,4.60
2023-05-06T16:52:50.161Z,6.03
2023-05-06T16:55:18.229Z,6.13
2023-05-06T16:57:46.213Z,3.20
2023-05-06T17:00:16.801Z,3.00
2023-05-06T17:02:44.792Z,3.40
2023-05-06T17:05:12.783Z,3.50
2023-05-06T17:07:40.967Z,6.13
2023-05-06T17:10:10.022Z,5.33
2023-05-06T17:12:39.156Z,3.33
2023-05-06T17:15:08.472Z,3.70
2023-05-06T17:17:37.882Z,7.10
2023-05-06T17:20:06.984Z,6.53
2023-05-06T17:22:35.123Z,9.33
2023-05-06T17:25:03.683Z,7.40
2023-05-06T17:27:31.798Z,4.40
2023-05-06T17:30:00.703Z,5.40
2023-05-06T17:32:28.954Z,9.70
2023-05-06T17:34:58.400Z,5.73
2023-05-06T17:37:26.500Z,6.90
2023-05-06T17:39:54.609Z,7.33
2023-05-06T17:42:22.718Z,4.53
2023-05-06T17:44:51.100Z,4.87
2023-05-06T17:47:22.656Z,4.63
2023-05-06T17:49:51.719Z,7.10
2023-05-06T17:52:21.351Z,22.17
2023-05-06T17:55:05.682Z,18.97
2023-05-06T17:57:37.935Z,6.33
2023-05-06T18:00:07.575Z,5.80
2023-05-06T18:02:37.455Z,5.43
2023-05-06T18:05:06.540Z,9.10
2023-05-06T18:07:36.087Z,5.10
2023-05-06T18:10:04.348Z,4.77
2023-05-06T18:12:32.549Z,4.80
2023-05-06T18:15:01.272Z,4.40
2023-05-06T18:17:29.451Z,12.20
2023-05-06T18:19:57.439Z,6.13
2023-05-06T18:22:25.542Z,11.77
2023-05-06T18:25:07.245Z,9.40
2023-05-06T18:27:35.297Z,9.23
2023-05-06T18:30:03.583Z,14.70
2023-05-06T18:32:32.448Z,5.33
2023-05-06T18:35:00.665Z,10.23
2023-05-06T18:37:29.392Z,5.93
2023-05-06T18:39:59.027Z,7.53
2023-05-06T18:42:27.984Z,11.20
2023-05-06T18:44:56.459Z,7.20
2023-05-06T18:47:25.659Z,8.20
2023-05-06T18:49:54.013Z,27.83
2023-05-06T18:52:23.202Z,6.53
2023-05-06T18:54:51.187Z,5.70
2023-05-06T18:57:20.692Z,6.37
2023-05-06T18:59:48.767Z,12.33
2023-05-06T19:02:16.879Z,10.15
2023-05-06T19:04:45.010Z,7.00
2023-05-06T19:07:15.576Z,27.40
2023-05-06T19:09:44.166Z,25.20
2023-05-06T19:12:12.491Z,16.13
2023-05-06T19:14:41.909Z,10.27
2023-05-06T19:17:11.178Z,7.40
2023-05-06T19:19:40.641Z,3.40
2023-05-06T19:22:08.644Z,4.40
2023-05-06T19:24:36.604Z,6.57
2023-05-06T19:27:04.718Z,4.70
2023-05-06T19:29:32.689Z,4.30
2023-05-06T19:32:02.541Z,12.90
2023-05-06T19:34:30.637Z,8.17
2023-05-06T19:36:58.610Z,8.33
2023-05-06T19:39:26.618Z,8.00
2023-05-06T19:41:55.611Z,7.20
2023-05-06T19:44:23.712Z,8.60
2023-05-06T19:46:54.311Z,9.87
2023-05-06T19:49:23.693Z,5.30
2023-05-06T19:51:51.838Z,8.70
2023-05-06T19:54:20.135Z,10.60
2023-05-06T19:56:48.112Z,6.18
2023-05-06T19:59:17.540Z,5.70
2023-05-06T20:01:45.691Z,7.27
2023-05-06T20:04:13.640Z,5.73
2023-05-06T20:06:43.052Z,4.83
2023-05-06T20:09:11.118Z,12.10
2023-05-06T20:11:39.807Z,10.90
2023-05-06T20:14:07.768Z,8.97
2023-05-06T20:16:36.077Z,31.77
2023-05-06T20:19:04.197Z,24.60
2023-05-06T20:21:32.463Z,16.80
2023-05-06T20:24:01.790Z,15.93
2023-05-06T20:26:29.950Z,9.63
2023-05-06T20:28:58.060Z,10.63
2023-05-06T20:31:26.152Z,23.13
2023-05-06T20:33:54.115Z,8.00
2023-05-06T20:36:22.091Z,9.07
2023-05-06T20:38:51.427Z,5.47
2023-05-06T20:41:21.391Z,6.77
2023-05-06T20:43:52.714Z,8.10
2023-05-06T20:46:20.871Z,4.40
2023-05-06T20:48:48.938Z,3.83
2023-05-06T20:51:17.019Z,7.17
2023-05-06T20:53:46.061Z,7.53
2023-05-06T20:56:19.152Z,12.30
2023-05-06T20:58:48.470Z,5.33
2023-05-06T21:01:17.442Z,24.93
2023-05-06T21:03:46.512Z,24.37
2023-05-06T21:06:15.019Z,14.07
2023-05-06T21:08:44.575Z,11.40
2023-05-06T21:11:12.609Z,11.90
2023-05-06T21:13:40.773Z,25.07
2023-05-06T21:16:10.158Z,23.30
2023-05-06T21:18:38.277Z,23.40
2023-05-06T21:21:06.430Z,23.20
2023-05-06T21:23:35.290Z,24.50
2023-05-06T21:26:03.376Z,18.40
2023-05-06T21:28:31.413Z,26.43
2023-05-06T21:30:59.450Z,20.33
2023-05-06T21:33:28.875Z,12.17
2023-05-06T21:35:56.818Z,12.60
2023-05-06T21:38:24.835Z,15.30
2023-05-06T21:40:52.793Z,25.33
2023-05-06T21:43:20.784Z,14.10
2023-05-06T21:45:48.744Z,75.77
2023-05-06T21:48:16.735Z,21.33
2023-05-06T21:50:46.084Z,30.10
2023-05-06T21:53:14.153Z,51.13
2023-05-06T21:55:42.134Z,36.13
2023-05-06T21:58:10.098Z,89.10
2023-05-06T22:00:38.080Z,63.83
2023-05-06T22:03:06.228Z,36.97
2023-05-06T22:05:34.308Z,92.00
2023-05-06T22:08:03.587Z,28.17
2023-05-06T22:10:31.716Z,132.77
2023-05-06T22:12:59.789Z,89.10
2023-05-06T22:15:27.852Z,12.27
2023-05-06T22:17:55.966Z,31.63
2023-05-06T22:20:24.276Z,36.00
2023-05-06T22:22:52.490Z,63.97
2023-05-06T22:25:21.922Z,33.77
2023-05-06T22:27:49.843Z,46.47
2023-05-06T22:30:18.042Z,15.20
2023-05-06T22:32:46.120Z,103.13
2023-05-06T22:35:14.243Z,131.67
2023-05-06T22:37:42.422Z,164.87
2023-05-06T22:40:11.679Z,94.30
2023-05-06T22:42:41.071Z,9.10
2023-05-06T22:45:10.964Z,23.13
2023-05-06T22:47:39.213Z,17.30
2023-05-06T22:50:08.913Z,12.93
2023-05-06T22:52:37.927Z,43.33
2023-05-06T22:55:07.088Z,17.83
2023-05-06T22:57:35.107Z,22.60
2023-05-06T23:00:05.529Z,8.83
2023-05-06T23:02:33.476Z,9.13
2023-05-06T23:05:01.456Z,19.40
2023-05-06T23:07:29.511Z,53.83
2023-05-06T23:09:59.395Z,27.97
2023-05-06T23:12:27.991Z,17.23
2023-05-06T23:14:55.960Z,32.33
2023-05-06T23:17:25.516Z,10.40
2023-05-06T23:19:53.707Z,29.47
2023-05-06T23:22:21.701Z,28.07
2023-05-06T23:24:49.636Z,13.23
2023-05-06T23:27:17.594Z,8.57
2023-05-06T23:29:45.574Z,34.23
2023-05-06T23:32:13.553Z,35.37
2023-05-06T23:34:42.905Z,7.80
2023-05-06T23:37:11.887Z,16.53
2023-05-06T23:39:39.816Z,9.63
2023-05-06T23:42:07.907Z,6.43
2023-05-06T23:44:36.095Z,7.60
2023-05-06T23:47:04.209Z,7.83
2023-05-06T23:49:32.665Z,8.60
2023-05-06T23:52:02.051Z,12.73
2023-05-06T23:54:30.383Z,9.83
2023-05-06T23:56:58.418Z,8.37
2023-05-06T23:59:26.413Z,10.30
